Aérodrome :
LOGIN :

S'inscrire | Disclaimer

   EN    FR    IT 

 










Légende :    VFR   VFR Marginal   IFR   IFR Intensif   IFR Très Intensif
Visi : 
Plafond : 
>= 8 km
>= 3000ft
5 à 8 km
1000 à 3000 ft
1500m à 5 km
500 à 1000 ft
800 à 1500m
200 à 500 ft
< 800m
< 200 ft
Symboles :   Orages  Brouillard  Fortes neiges  Fortes précipitations  Vent > 20 kt
SIGMETs :   Divers  Orages  Givrage  Turbulence  Onde Orograph.  Cendres Volcan.






- Altitude de l'aérodrome : 876 ft
- Code IATA : MBX


LJMB - Maribor

DERNIER METAR :
  • 221600Z VRB02KT 1500 BR OVC003 M03/M04 Q1030

METARs EXPIRÉS :
  • 221530Z 12001KT 2000 BR OVC004 M03/M04 Q1029
  • 221500Z 11003KT 060V170 2000 BR OVC004 M03/M04 Q1029
  • 221430Z 36001KT 2000 BR OVC004 M03/M04 Q1029
  • 221400Z VRB02KT 2500 BR OVC004 M03/M04 Q1030
  • 221330Z 36003KT 340V060 2500 BR OVC004 M03/M04 Q1030

TAF TAF LJMB
Valide du 22 à 15h jusqu'au 23 à 15h UTC


221400Z 2215/2315 36005KT 2500 BR OVC004
PROB30
TEMPO 2215/2219 6000 SCT005
PROB30
TEMPO 2221/2306 0350 FZFG VV002
BECMG 2306/2309 9999 NSW SCT030
PROB40
TEMPO 2306/2315 BKN025
BECMG 2310/2312 16007KT
BECMG 2312/2314 CAVOK



MET'MAP, la Météo Aéronautique d'un coup d'oeil ! - Copyright ORBIFLY Décembre 2007 - Disclaimer

ORBIFLY MET'MAP TEAM :

Programmation & Développement : Alexandra Zaïnal
Sur une idée originale de : Baudouin d'Aumeries
Assistance à la programmation : Marc-Olivier Méhu
Soutien technique & logistique : Manuel Goepfert

Contact : metmap@orbifly.com




SOURCES & CREDITS :

   NOAA